Ruskin, Florida
Current Conditions -  °F | °C
As of 3:58 AM on Wednesday 28 Jan 2015 (Local Time) from KMCF Reporting Station
Clear Clear  
Wind Chill: 46°   Ceiling: Unl
Heat Index: 49°   Visibility: 10mi
Dew Point: 43°   Wind: 6mph
Humidity: 80%   Direction: 360°N
Pressure: 30.1"   Gusts: NA
Location:  27.72°N, 82.43°W
Report Text: KMCF 280858Z AUTO 36005KT 10SM CLR 09/06 A3010 RMK AO2 SLP196 T00930060
Loading
Personal Weather Stations






























Interactive Weather Map New forecast layout! Learn more

10-Day Weather Forecast

Advertisements
Track Severe Weather on mobile